createdAt,value
2023-03-22T00:01:21.295Z,18.35
2023-03-22T00:03:49.269Z,20.08
2023-03-22T00:06:16.749Z,20.25
2023-03-22T00:08:44.378Z,21.15
2023-03-22T00:11:12.913Z,20.55
2023-03-22T00:13:39.807Z,21.55
2023-03-22T00:16:07.084Z,21.98
2023-03-22T00:18:34.294Z,22.73
2023-03-22T00:21:01.855Z,20.25
2023-03-22T00:23:29.467Z,20.75
2023-03-22T00:25:56.570Z,22.58
2023-03-22T00:28:24.608Z,22.17
2023-03-22T00:31:00.497Z,19.88
2023-03-22T00:33:28.558Z,20.52
2023-03-22T00:36:00.371Z,20.48
2023-03-22T00:38:42.382Z,26.05
2023-03-22T00:41:16.217Z,21.23
2023-03-22T00:43:43.597Z,20.13
2023-03-22T00:46:11.383Z,18.80
2023-03-22T00:48:38.731Z,19.85
2023-03-22T00:51:06.222Z,19.80
2023-03-22T00:53:33.447Z,20.77
2023-03-22T00:56:00.591Z,18.77
2023-03-22T00:58:27.339Z,20.50
2023-03-22T01:00:54.210Z,17.95
2023-03-22T01:03:22.056Z,20.50
2023-03-22T01:05:52.182Z,21.48
2023-03-22T01:08:18.952Z,24.02
2023-03-22T01:10:46.090Z,26.55
2023-03-22T01:13:13.086Z,21.60
2023-03-22T01:15:40.015Z,23.40
2023-03-22T01:18:07.662Z,26.13
2023-03-22T01:20:35.277Z,27.25
2023-03-22T01:23:02.120Z,24.33
2023-03-22T01:25:28.963Z,27.58
2023-03-22T01:27:56.058Z,24.08
2023-03-22T01:30:22.868Z,24.25
2023-03-22T01:32:49.690Z,25.48
2023-03-22T01:35:16.544Z,23.27
2023-03-22T01:37:43.342Z,20.52
2023-03-22T01:40:13.413Z,23.00
2023-03-22T01:42:40.353Z,24.35
2023-03-22T01:45:27.549Z,25.02
2023-03-22T01:48:02.479Z,20.83
2023-03-22T01:50:31.252Z,23.15
2023-03-22T01:53:00.589Z,23.70
2023-03-22T01:55:28.188Z,23.85
2023-03-22T01:57:55.564Z,22.23
2023-03-22T02:00:22.691Z,24.85
2023-03-22T02:02:52.394Z,21.23
2023-03-22T02:05:22.269Z,24.45
2023-03-22T02:07:50.615Z,20.60
2023-03-22T02:10:22.187Z,19.60
2023-03-22T02:13:07.230Z,22.23
2023-03-22T02:15:43.551Z,21.17
2023-03-22T02:18:16.497Z,17.35
2023-03-22T02:21:02.439Z,16.42
2023-03-22T02:24:03.790Z,19.60
2023-03-22T02:26:51.749Z,16.48
2023-03-22T02:29:34.060Z,19.60
2023-03-22T02:32:12.565Z,20.23
2023-03-22T02:35:21.378Z,17.00
2023-03-22T02:38:00.318Z,17.05
2023-03-22T02:40:39.489Z,16.85
2023-03-22T02:43:41.678Z,16.90
2023-03-22T02:46:18.949Z,16.65
2023-03-22T02:49:08.471Z,15.52
2023-03-22T02:51:47.460Z,17.58
2023-03-22T02:54:18.991Z,17.80
2023-03-22T02:56:57.795Z,15.05
2023-03-22T02:59:26.886Z,16.90
2023-03-22T03:01:58.259Z,17.27
2023-03-22T03:04:29.416Z,16.92
2023-03-22T03:07:00.469Z,15.77
2023-03-22T03:09:28.171Z,16.93
2023-03-22T03:11:55.336Z,17.83
2023-03-22T03:14:26.729Z,16.90
2023-03-22T03:17:16.789Z,18.23
2023-03-22T03:19:51.738Z,17.67
2023-03-22T03:22:29.595Z,18.33
2023-03-22T03:25:34.167Z,15.50
2023-03-22T03:28:11.418Z,17.08
2023-03-22T03:30:48.747Z,14.85
2023-03-22T03:33:19.754Z,15.88
2023-03-22T03:36:01.510Z,14.80
2023-03-22T03:38:32.007Z,16.08
2023-03-22T03:41:27.443Z,15.52
2023-03-22T03:43:56.242Z,15.95
2023-03-22T03:46:23.023Z,13.05
2023-03-22T03:48:51.811Z,13.40
2023-03-22T03:51:18.847Z,13.73
2023-03-22T03:53:45.576Z,14.90
2023-03-22T03:56:12.434Z,14.15
2023-03-22T03:58:39.170Z,13.68
2023-03-22T04:01:06.188Z,13.88
2023-03-22T04:03:33.033Z,13.05
2023-03-22T04:05:59.904Z,13.52
2023-03-22T04:08:27.395Z,17.20
2023-03-22T04:10:54.187Z,14.50
2023-03-22T04:13:25.187Z,14.93
2023-03-22T04:15:55.445Z,14.63
2023-03-22T04:18:22.226Z,14.32
2023-03-22T04:20:49.564Z,14.23
2023-03-22T04:23:16.595Z,14.95
2023-03-22T04:25:43.705Z,15.77
2023-03-22T04:28:10.507Z,15.00
2023-03-22T04:30:37.537Z,17.00
2023-03-22T04:33:08.513Z,15.18
2023-03-22T04:35:35.452Z,15.95
2023-03-22T04:38:02.225Z,14.40
2023-03-22T04:40:31.802Z,16.88
2023-03-22T04:42:58.975Z,16.65
2023-03-22T04:45:29.278Z,16.30
2023-03-22T04:47:56.422Z,16.25
2023-03-22T04:50:23.350Z,16.02
2023-03-22T04:52:50.375Z,15.50
2023-03-22T04:55:17.167Z,16.90
2023-03-22T04:57:43.919Z,15.50
2023-03-22T05:00:11.341Z,16.15
2023-03-22T05:02:41.490Z,15.20
2023-03-22T05:05:08.548Z,16.88
2023-03-22T05:07:36.572Z,16.17
2023-03-22T05:10:03.535Z,14.70
2023-03-22T05:12:30.317Z,14.68
2023-03-22T05:14:57.102Z,14.88
2023-03-22T05:17:23.835Z,15.05
2023-03-22T05:19:51.939Z,13.85
2023-03-22T05:22:19.296Z,15.00
2023-03-22T05:24:46.172Z,13.15
2023-03-22T05:27:14.224Z,13.93
2023-03-22T05:29:45.010Z,14.43
2023-03-22T05:32:12.141Z,14.85
2023-03-22T05:34:40.119Z,14.38
2023-03-22T05:37:06.842Z,14.93
2023-03-22T05:39:33.876Z,14.60
2023-03-22T05:42:00.650Z,13.68
2023-03-22T05:44:27.560Z,16.40
2023-03-22T05:46:54.319Z,17.33
2023-03-22T05:49:21.212Z,19.13
2023-03-22T05:51:48.136Z,19.85
2023-03-22T05:54:14.864Z,15.98
2023-03-22T05:56:41.564Z,15.35
2023-03-22T05:59:08.359Z,14.43
2023-03-22T06:01:35.326Z,13.02
2023-03-22T06:04:02.288Z,15.52
2023-03-22T06:06:29.151Z,13.38
2023-03-22T06:09:04.294Z,13.30
2023-03-22T06:11:41.185Z,12.75
2023-03-22T06:14:08.049Z,12.80
2023-03-22T06:16:34.868Z,11.82
2023-03-22T06:19:01.691Z,10.70
2023-03-22T06:21:28.473Z,11.45
2023-03-22T06:23:55.260Z,12.32
2023-03-22T06:26:22.014Z,13.48
2023-03-22T06:28:48.879Z,11.90
2023-03-22T06:31:15.861Z,12.50
2023-03-22T06:33:42.653Z,11.45
2023-03-22T06:36:09.734Z,15.70
2023-03-22T06:38:36.460Z,10.98
2023-03-22T06:41:03.365Z,10.68
2023-03-22T06:43:30.474Z,9.30
2023-03-22T06:45:57.416Z,8.73
2023-03-22T06:48:24.263Z,9.43
2023-03-22T06:50:51.090Z,9.07
2023-03-22T06:53:17.801Z,7.95
2023-03-22T06:55:44.584Z,7.60
2023-03-22T06:58:11.699Z,7.93
2023-03-22T07:00:39.313Z,7.30
2023-03-22T07:03:06.247Z,9.55
2023-03-22T07:05:33.077Z,6.63
2023-03-22T07:07:59.857Z,5.50
2023-03-22T07:10:26.614Z,5.38
2023-03-22T07:12:53.383Z,4.20
2023-03-22T07:15:24.306Z,6.65
2023-03-22T07:17:52.227Z,6.35
2023-03-22T07:20:20.033Z,6.75
2023-03-22T07:22:47.089Z,5.95
2023-03-22T07:25:14.025Z,3.90
2023-03-22T07:27:41.170Z,6.18
2023-03-22T07:30:09.819Z,9.38
2023-03-22T07:32:37.065Z,7.25
2023-03-22T07:35:04.141Z,7.00
2023-03-22T07:37:31.283Z,8.10
2023-03-22T07:39:58.049Z,5.03
2023-03-22T07:42:24.874Z,4.70
2023-03-22T07:44:51.961Z,8.35
2023-03-22T07:47:27.192Z,5.47
2023-03-22T07:52:27.959Z,7.05
2023-03-22T07:54:54.737Z,10.43
2023-03-22T07:57:21.502Z,9.73
2023-03-22T07:59:48.249Z,10.32
2023-03-22T08:02:16.096Z,12.02
2023-03-22T08:04:42.865Z,8.60
2023-03-22T08:07:10.158Z,7.05
2023-03-22T08:09:37.631Z,12.98
2023-03-22T08:12:04.630Z,11.93
2023-03-22T08:14:36.677Z,10.77
2023-03-22T08:17:05.728Z,9.80
2023-03-22T08:19:33.308Z,12.70
2023-03-22T08:22:49.927Z,7.65
2023-03-22T08:25:16.767Z,10.73
2023-03-22T08:27:43.509Z,9.43
2023-03-22T08:30:11.123Z,11.90
2023-03-22T08:32:38.032Z,8.05
2023-03-22T08:35:06.438Z,8.60
2023-03-22T08:37:33.207Z,10.75
2023-03-22T08:39:59.982Z,6.90
2023-03-22T08:42:26.864Z,9.00
2023-03-22T08:44:53.581Z,5.25
2023-03-22T08:47:20.588Z,9.35
2023-03-22T08:49:47.414Z,7.93
2023-03-22T08:52:14.236Z,10.43
2023-03-22T08:54:41.501Z,6.03
2023-03-22T08:57:10.344Z,5.65
2023-03-22T08:59:37.262Z,6.38
2023-03-22T09:02:04.458Z,6.85
2023-03-22T09:04:31.504Z,6.53
2023-03-22T09:06:58.295Z,5.15
2023-03-22T09:09:25.414Z,4.85
2023-03-22T09:11:52.547Z,5.53
2023-03-22T09:14:19.333Z,4.57
2023-03-22T09:16:47.204Z,4.53
2023-03-22T09:19:14.172Z,7.85
2023-03-22T09:21:41.240Z,5.90
2023-03-22T09:24:08.682Z,7.25
2023-03-22T09:26:36.991Z,6.18
2023-03-22T09:29:03.814Z,7.95
2023-03-22T09:31:30.879Z,6.38
2023-03-22T09:33:57.643Z,5.95
2023-03-22T09:36:24.509Z,9.38
2023-03-22T09:38:51.417Z,6.43
2023-03-22T09:41:40.221Z,9.23
2023-03-22T09:44:14.247Z,7.50
2023-03-22T09:46:46.081Z,8.73
2023-03-22T09:49:24.459Z,6.82
2023-03-22T09:51:53.149Z,9.88
2023-03-22T09:54:35.310Z,8.07
2023-03-22T09:59:57.098Z,7.00
2023-03-22T10:02:54.897Z,9.20
2023-03-22T10:05:43.691Z,7.35
2023-03-22T10:08:27.756Z,8.20
2023-03-22T10:10:54.806Z,6.25
2023-03-22T10:13:24.200Z,7.30
2023-03-22T10:15:56.941Z,6.97
2023-03-22T10:18:25.934Z,7.93
2023-03-22T10:21:03.858Z,7.65
2023-03-22T10:23:37.024Z,7.80
2023-03-22T10:26:06.647Z,8.45
2023-03-22T10:28:44.391Z,8.00
2023-03-22T10:31:16.113Z,7.50
2023-03-22T10:33:53.624Z,7.43
2023-03-22T10:36:23.855Z,8.52
2023-03-22T10:38:56.440Z,8.35
2023-03-22T10:41:25.745Z,5.80
2023-03-22T10:43:55.647Z,8.77
2023-03-22T10:46:26.216Z,7.10
2023-03-22T10:48:58.730Z,7.22
2023-03-22T10:51:49.087Z,11.82
2023-03-22T10:54:26.375Z,7.82
2023-03-22T10:56:53.408Z,6.53
2023-03-22T10:59:42.444Z,8.23
2023-03-22T11:02:21.580Z,8.43
2023-03-22T11:04:53.867Z,11.20
2023-03-22T11:07:50.224Z,9.05
2023-03-22T11:10:29.723Z,11.13
2023-03-22T11:13:12.315Z,8.55
2023-03-22T11:15:51.771Z,8.18
2023-03-22T11:18:19.591Z,7.25
2023-03-22T11:21:03.887Z,8.00
2023-03-22T11:23:36.083Z,6.15
2023-03-22T11:26:12.088Z,5.28
2023-03-22T11:28:50.849Z,5.93
2023-03-22T11:31:20.535Z,6.13
2023-03-22T11:33:53.438Z,7.63
2023-03-22T11:36:20.584Z,6.68
2023-03-22T11:38:48.778Z,7.82
2023-03-22T11:41:27.316Z,7.70
2023-03-22T11:43:57.061Z,6.90
2023-03-22T11:46:24.997Z,4.55
2023-03-22T11:49:00.348Z,6.05
2023-03-22T11:51:38.821Z,5.68
2023-03-22T11:54:16.805Z,6.13
2023-03-22T11:56:47.353Z,7.80
2023-03-22T11:59:26.236Z,6.25
2023-03-22T12:02:29.351Z,5.75
2023-03-22T12:05:15.544Z,9.25
2023-03-22T12:07:43.434Z,4.63
2023-03-22T12:10:21.071Z,4.63
2023-03-22T12:12:56.263Z,5.32
2023-03-22T12:15:37.240Z,4.20
2023-03-22T12:18:13.820Z,4.38
2023-03-22T12:20:57.451Z,5.30
2023-03-22T12:23:27.478Z,5.18
2023-03-22T12:26:12.327Z,4.13
2023-03-22T12:28:52.605Z,3.38
2023-03-22T12:31:24.335Z,5.72
2023-03-22T12:33:54.816Z,5.32
2023-03-22T12:36:32.131Z,3.22
2023-03-22T12:39:01.327Z,5.35
2023-03-22T12:41:36.485Z,4.22
2023-03-22T12:44:11.284Z,4.40
2023-03-22T12:47:01.153Z,4.50
2023-03-22T12:49:35.846Z,4.50
2023-03-22T12:52:22.447Z,5.80
2023-03-22T12:54:53.122Z,7.75
2023-03-22T12:57:20.526Z,5.40
2023-03-22T12:59:52.209Z,8.45
2023-03-22T13:02:30.146Z,5.45
2023-03-22T13:05:06.695Z,6.03
2023-03-22T13:07:48.675Z,5.30
2023-03-22T13:10:34.158Z,6.30
2023-03-22T13:13:31.820Z,6.38
2023-03-22T13:15:58.697Z,4.50
2023-03-22T13:18:58.122Z,5.93
2023-03-22T13:21:29.913Z,5.63
2023-03-22T13:24:06.410Z,10.65
2023-03-22T13:26:53.508Z,6.35
2023-03-22T13:29:20.524Z,4.90
2023-03-22T13:31:47.259Z,3.70
2023-03-22T13:34:36.124Z,6.95
2023-03-22T13:37:05.326Z,5.88
2023-03-22T13:39:36.071Z,5.38
2023-03-22T13:42:08.599Z,5.22
2023-03-22T13:44:43.985Z,4.93
2023-03-22T13:47:35.977Z,7.15
2023-03-22T13:50:16.123Z,4.47
2023-03-22T13:52:53.016Z,5.25
2023-03-22T13:55:41.271Z,6.47
2023-03-22T13:58:37.436Z,4.18
2023-03-22T14:01:16.724Z,5.78
2023-03-22T14:03:47.499Z,5.25
2023-03-22T14:06:19.042Z,6.50
2023-03-22T14:08:51.909Z,6.30
2023-03-22T14:11:20.256Z,7.75
2023-03-22T14:13:56.248Z,4.35
2023-03-22T14:16:43.541Z,7.13
2023-03-22T14:19:25.111Z,3.80
